Latest Weather Observations for East Sale

IDV60801

Issued at 7:31 am EST Tuesday 1 September 2015 (issued every 30 minutes, with the page automatically refreshed every 10 minutes)

About weather observations | Map of weather stations | Latest weather observations for VIC | Other Formats
Station Details ID: 085072 Name: EAST SALE AIRPORT Lat: -38.12 Lon: 147.13 Height: 4.6 m
Data from the previous 72 hours. | See also: Recent months at East Sale
Date/Time
EST
Temp
°C
App
Temp
°C
Dew
Point
Rel
Hum
%
Delta-T
°C
Wind Press
QNH
hPa
Press
MSL
hPa
Rain
since 9 am
mm
Dir
 
Spd
km/h
Gust
km/h
Spd
kts
Gust
kts
01/07:00am 5.0 1.7 4.4 96 0.3 WNW 11 15 6 8 1017.6 1017.6 0.0
01/06:30am 4.5 1.1 4.2 98 0.1 NW 11 11 6 6 1017.4 1017.4 0.0
01/06:00am 3.7 -0.2 3.3 97 0.2 NW 13 13 7 7 1017.3 1017.3 0.0
01/05:30am 4.1 0.3 3.7 97 0.2 WNW 13 13 7 7 1017.3 1017.3 0.0
01/05:00am 4.5 1.1 3.8 95 0.3 WNW 11 15 6 8 1017.4 1017.4 0.0
01/04:30am 5.3 2.0 4.6 95 0.3 WNW 11 15 6 8 1017.2 1017.2 0.0
01/04:00am 6.5 3.4 5.5 93 0.4 W 11 13 6 7 1017.2 1017.2 0.0
01/03:30am 7.2 4.6 6.1 93 0.5 WNW 9 9 5 5 1017.3 1017.3 0.0
01/03:00am 7.6 5.0 6.1 90 0.7 NW 9 11 5 6 1017.5 1017.5 0.0
01/02:30am 7.3 4.7 5.9 91 0.6 WNW 9 13 5 7 1017.8 1017.8 0.0
01/02:00am 7.4 5.2 6.0 91 0.6 W 7 11 4 6 1018.0 1018.0 0.0
01/01:30am 7.2 5.8 5.5 89 0.8 WSW 2 7 1 4 1018.3 1018.3 0.0
01/01:00am 7.0 4.7 5.5 90 0.7 NW 7 9 4 5 1018.3 1018.3 0.0
01/12:30am 7.1 4.9 5.1 87 0.9 WSW 6 7 3 4 1018.4 1018.4 0.0
01/12:00am 7.8 5.6 5.4 85 1.1 SSW 6 7 3 4 1018.5 1018.5 0.0
 
Date/Time
EST
Temp
°C
App
Temp
°C
Dew
Point
Rel
Hum
%
Delta-T
°C
Wind Press
QNH
hPa
Press
MSL
hPa
Rain
since 9 am
mm
Dir
 
Spd
km/h
Gust
km/h
Spd
kts
Gust
kts
31/11:30pm 8.2 6.1 6.5 89 0.8 WSW 7 9 4 5 1018.7 1018.7 0.0
31/11:00pm 8.7 6.9 7.0 89 0.8 WNW 6 9 3 5 1018.8 1018.8 0.0
31/10:30pm 8.6 6.5 6.6 87 0.9 W 7 9 4 5 1018.9 1018.9 0.0
31/10:00pm 8.7 6.8 6.7 87 0.9 SW 6 6 3 3 1019.2 1019.2 0.0
31/09:30pm 9.0 8.3 6.8 86 1.0 CALM 0 0 0 0 1019.2 1019.2 0.0
31/09:00pm 9.4 8.7 6.8 84 1.2 CALM 0 0 0 0 1019.1 1019.1 0.0
31/08:30pm 9.3 7.8 6.9 85 1.1 S 4 7 2 4 1019.0 1019.0 0.0
31/08:00pm 9.2 7.2 7.0 86 1.0 SSW 7 7 4 4 1018.9 1018.9 0.0
31/07:30pm 9.5 7.5 7.1 85 1.1 SSW 7 9 4 5 1018.8 1018.8 0.0
31/07:00pm 9.8 8.4 7.2 84 1.2 SSW 4 9 2 5 1018.7 1018.7 0.0
31/06:30pm 10.0 7.3 7.4 84 1.2 SSE 11 17 6 9 1018.6 1018.6 0.0
31/06:00pm 10.1 7.0 7.3 83 1.3 SSE 13 17 7 9 1018.6 1018.6 0.0
31/05:30pm 10.5 7.3 7.0 79 1.7 SSE 13 19 7 10 1018.5 1018.5 0.0
31/05:00pm 11.1 8.1 7.6 79 1.7 SE 13 17 7 9 1018.5 1018.5 0.0
31/04:30pm 11.5 8.5 7.8 78 1.8 SE 13 19 7 10 1018.3 1018.3 0.0
31/04:00pm 12.8 10.7 6.8 67 2.9 SE 7 9 4 5 1018.2 1018.2 0.0
31/03:30pm 12.6 10.0 6.2 65 3.0 S 9 15 5 8 1018.2 1018.2 0.0
31/03:00pm 13.1 10.9 6.2 63 3.3 SSW 7 9 4 5 1018.3 1018.3 0.0
31/02:30pm 12.2 9.1 5.6 64 3.1 SSW 11 15 6 8 1018.6 1018.6 0.0
31/02:00pm 12.6 10.1 6.4 66 2.9 WSW 9 15 5 8 1018.7 1018.7 0.0
31/01:30pm 12.7 9.4 4.4 57 3.8 WNW 11 19 6 10 1018.9 1018.9 0.0
31/01:00pm 12.7 9.2 5.6 62 3.3 NW 13 22 7 12 1019.3 1019.3 0.0
31/12:30pm 12.4 9.2 5.3 62 3.3 W 11 17 6 9 1019.7 1019.7 0.0
31/12:00pm 12.0 8.6 5.9 66 2.8 W 13 20 7 11 1020.1 1020.1 0.0
31/11:30am 11.1 7.2 5.2 67 2.7 WNW 15 24 8 13 1020.6 1020.6 0.0
31/11:00am 10.9 6.4 4.4 64 2.9 W 17 24 9 13 1020.7 1020.7 0.0
31/10:30am 10.4 5.5 4.3 66 2.7 WNW 19 24 10 13 1021.0 1021.0 0.0
31/10:00am 10.1 5.7 4.9 70 2.3 WNW 17 22 9 12 1021.2 1021.2 0.0
31/09:30am 8.9 5.4 5.3 78 1.6 W 13 19 7 10 1021.4 1021.4 0.0
31/09:00am 8.2 4.2 5.0 80 1.4 W 15 19 8 10 1021.4 1021.4 0.0
31/08:30am 6.1 2.1 5.1 93 0.4 WNW 15 19 8 10 1021.6 1021.6 0.0
31/08:00am 4.2 0.8 4.1 99 0.0 WNW 11 15 6 8 1021.5 1021.5 0.0
31/07:33am 2.6 -1.1 2.5 99 0.0 WNW 11 11 6 6 1021.4 1021.4 0.0
31/07:30am 2.4 -1.3 2.3 99 0.0 WNW 11 11 6 6 1021.4 1021.4 0.0
31/07:22am 2.0 -1.8 1.9 99 0.0 WNW 11 13 6 7 1021.4 1021.4 0.0
31/07:00am 1.4 -2.5 1.3 99 0.0 WNW 11 13 6 7 1021.2 1021.2 0.0
31/06:30am 1.7 -2.1 1.6 99 0.0 NW 11 13 6 7 1021.0 1021.0 0.0
31/06:00am 2.2 -1.2 2.1 99 0.0 NW 9 11 5 6 1020.9 1020.9 0.0
31/05:30am 2.5 -1.2 2.4 99 0.0 WNW 11 13 6 7 1020.9 1020.9 0.0
31/05:27am 2.6 -1.1 2.3 98 0.1 NW 11 13 6 7 1020.9 1020.9 0.0
31/05:12am 2.1 -1.7 1.8 98 0.1 WNW 11 13 6 7 1020.9 1020.9 0.0
31/05:00am 2.5 -1.2 2.2 98 0.1 NW 11 11 6 6 1020.9 1020.9 0.0
31/04:30am 2.7 -1.4 2.4 98 0.1 WNW 13 13 7 7 1020.8 1020.8 0.0
31/04:00am 2.9 -0.8 2.6 98 0.1 WNW 11 11 6 6 1020.8 1020.8 0.0
31/03:30am 3.1 -0.5 2.7 97 0.2 W 11 13 6 7 1020.9 1020.9 0.0
31/03:00am 3.2 0.3 2.8 97 0.2 W 7 9 4 5 1021.1 1021.1 0.0
31/02:30am 3.2 -0.1 2.5 95 0.3 WNW 9 11 5 6 1021.5 1021.5 0.0
31/02:00am 3.7 0.5 2.8 94 0.4 WNW 9 11 5 6 1021.9 1021.9 0.0
31/01:30am 4.6 1.1 3.6 93 0.4 WNW 11 11 6 6 1022.1 1022.1 0.0
31/01:00am 5.5 2.5 4.0 90 0.6 NW 9 11 5 6 1022.3 1022.3 0.0
31/12:30am 6.5 3.7 5.0 90 0.7 W 9 11 5 6 1022.4 1022.4 0.0
31/12:00am 7.2 4.5 5.5 89 0.8 WSW 9 11 5 6 1022.6 1022.6 0.0
 
Date/Time
EST
Temp
°C
App
Temp
°C
Dew
Point
Rel
Hum
%
Delta-T
°C
Wind Press
QNH
hPa
Press
MSL
hPa
Rain
since 9 am
mm
Dir
 
Spd
km/h
Gust
km/h
Spd
kts
Gust
kts
30/11:30pm 8.0 5.4 6.0 87 0.9 WSW 9 11 5 6 1022.9 1022.9 0.0
30/11:00pm 8.2 5.1 5.7 84 1.1 W 11 15 6 8 1023.2 1023.2 0.0
30/10:30pm 8.5 5.9 6.3 86 1.0 WSW 9 11 5 6 1023.4 1023.4 0.0
30/10:00pm 8.7 5.3 5.8 82 1.3 SSW 13 15 7 8 1023.7 1023.7 0.0
30/09:30pm 8.8 5.0 5.9 82 1.3 SW 15 17 8 9 1023.7 1023.7 0.0
30/09:00pm 8.6 5.7 6.4 86 1.0 SW 11 11 6 6 1023.5 1023.5 0.0
30/08:30pm 8.8 6.4 6.9 88 0.9 SW 9 11 5 6 1023.3 1023.3 0.0
30/08:00pm 8.9 6.8 6.7 86 1.0 SSE 7 9 4 5 1023.1 1023.1 0.0
30/07:30pm 8.4 5.9 6.5 88 0.9 SE 9 11 5 6 1022.9 1022.9 0.0
30/07:00pm 8.2 5.6 6.3 88 0.9 SE 9 11 5 6 1022.8 1022.8 0.0
30/06:30pm 8.0 4.9 5.6 85 1.1 ESE 11 13 6 7 1022.7 1022.7 0.0
30/06:00pm 8.2 5.0 5.0 80 1.4 ESE 11 13 6 7 1022.4 1022.4 0.0
30/05:30pm 9.8 6.4 6.0 77 1.7 E 13 13 7 7 1022.1 1022.1 0.0
30/05:00pm 11.3 8.2 5.6 68 2.6 E 11 13 6 7 1022.0 1022.0 0.0
30/04:30pm 11.9 8.0 5.5 65 3.0 E 15 17 8 9 1021.8 1021.8 0.0
30/04:00pm 12.2 8.1 4.2 58 3.6 E 15 20 8 11 1022.0 1022.0 0.0
30/03:30pm 12.1 9.4 5.5 64 3.1 SE 9 17 5 9 1022.2 1022.2 0.0
30/03:00pm 13.3 10.6 5.7 60 3.6 E 9 13 5 7 1022.3 1022.3 0.0
30/02:30pm 12.8 9.8 4.0 55 4.0 SSW 9 13 5 7 1022.5 1022.5 0.0
30/02:00pm 13.3 10.2 3.7 52 4.3 SSE 9 13 5 7 1022.6 1022.6 0.0
30/01:30pm 12.6 9.5 3.5 54 4.1 S 9 15 5 8 1022.8 1022.8 0.0
30/01:00pm 12.9 9.3 4.8 58 3.7 S 13 22 7 12 1023.0 1023.0 0.0
30/12:30pm 11.6 7.2 5.0 64 3.0 S 17 24 9 13 1023.3 1023.3 0.0
30/12:00pm 12.3 8.6 6.1 66 2.9 SSW 15 20 8 11 1023.6 1023.6 0.0
30/11:30am 11.9 7.2 5.1 63 3.1 SSW 19 26 10 14 1024.1 1024.1 0.0
30/11:00am 11.0 6.3 6.2 72 2.2 SW 20 26 11 14 1024.5 1024.5 0.0
30/10:30am 11.1 7.1 6.5 73 2.2 SW 17 24 9 13 1024.6 1024.6 0.0
30/10:00am 11.3 7.6 6.2 71 2.4 SW 15 26 8 14 1024.6 1024.6 0.0
30/09:30am 11.0 7.9 7.1 77 1.9 SW 13 17 7 9 1024.8 1024.8 0.0
30/09:00am 10.0 7.3 7.4 84 1.2 WSW 11 17 6 9 1024.8 1024.8 0.4
30/08:30am 8.9 6.5 7.0 88 0.9 WSW 9 13 5 7 1024.7 1024.7 0.4
30/08:00am 7.8 4.9 6.3 90 0.7 WSW 11 15 6 8 1024.6 1024.6 0.4
30/07:30am 6.3 3.2 5.6 95 0.3 W 11 15 6 8 1024.2 1024.2 0.4
30/07:00am 4.9 1.2 4.5 97 0.2 W 13 15 7 8 1023.9 1023.9 0.4
30/06:59am 4.9 1.2 4.5 97 0.2 W 13 13 7 7 1023.9 1023.9 0.4
30/06:31am 5.0 1.3 4.7 98 0.1 W 13 15 7 8 1023.9 1023.9 0.4
30/06:30am 4.9 1.2 4.5 97 0.2 W 13 15 7 8 1023.9 1023.9 0.4
30/06:00am 5.7 2.6 5.4 98 0.1 WSW 11 13 6 7 1023.6 1023.6 0.4
30/05:30am 6.1 2.7 5.7 97 0.2 WSW 13 17 7 9 1023.5 1023.5 0.4
30/05:00am 6.4 2.6 6.0 97 0.2 WSW 15 19 8 10 1023.3 1023.3 0.4
30/04:30am 6.6 2.9 6.2 97 0.2 W 15 19 8 10 1023.0 1023.0 0.4
30/04:00am 7.0 3.0 6.6 97 0.2 W 17 19 9 10 1023.0 1023.0 0.4
30/03:30am 7.4 3.4 6.8 96 0.3 W 17 20 9 11 1022.8 1022.8 0.4
30/03:00am 7.9 4.0 7.3 96 0.3 W 17 20 9 11 1022.8 1022.8 0.4
30/02:46am 8.1 4.3 7.5 96 0.3 W 17 20 9 11 1022.9 1022.9 0.4
30/02:30am 8.3 4.5 7.7 96 0.3 W 17 20 9 11 1023.1 1023.1 0.4
30/02:12am 8.2 3.8 7.4 95 0.4 WSW 20 28 11 15 1023.3 1023.3 0.2
30/02:00am 8.2 4.0 7.4 95 0.4 W 19 24 10 13 1023.2 1023.2 0.0
30/01:30am 8.0 3.2 7.2 95 0.4 W 22 28 12 15 1023.1 1023.1 0.0
30/01:00am 7.9 3.7 7.3 96 0.3 W 19 22 10 12 1023.6 1023.6 0.0
30/12:30am 7.9 4.0 7.3 96 0.3 W 17 20 9 11 1023.8 1023.8 0.0
30/12:00am 7.7 3.8 7.1 96 0.3 W 17 20 9 11 1023.7 1023.7 0.0
 
Date/Time
EST
Temp
°C
App
Temp
°C
Dew
Point
Rel
Hum
%
Delta-T
°C
Wind Press
QNH
hPa
Press
MSL
hPa
Rain
since 9 am
mm
Dir
 
Spd
km/h
Gust
km/h
Spd
kts
Gust
kts
29/11:30pm 7.8 3.9 7.1 95 0.3 W 17 20 9 11 1023.7 1023.7 0.0
29/11:00pm 8.0 4.1 7.2 95 0.4 W 17 20 9 11 1023.8 1023.8 0.0
29/10:30pm 8.0 4.5 7.2 95 0.4 W 15 19 8 10 1024.0 1024.0 0.0
29/10:00pm 8.1 4.2 7.2 94 0.4 W 17 20 9 11 1024.0 1024.0 0.0
29/09:30pm 8.1 4.2 7.0 93 0.5 W 17 22 9 12 1024.0 1024.0 0.0
29/09:00pm 8.4 4.1 7.2 92 0.6 W 19 22 10 12 1023.9 1023.9 0.0
29/08:30pm 8.8 4.4 7.4 91 0.7 W 20 28 11 15 1023.6 1023.6 0.0
29/08:00pm 9.2 4.8 7.6 90 0.8 W 20 24 11 13 1023.6 1023.6 0.0
29/07:30pm 9.2 5.0 7.6 90 0.8 W 19 24 10 13 1023.6 1023.6 0.0
29/07:00pm 9.2 5.4 7.5 89 0.8 WSW 17 24 9 13 1023.3 1023.3 0.0
29/06:30pm 9.8 5.5 7.7 87 1.0 WSW 20 28 11 15 1022.9 1022.9 0.0
29/06:00pm 10.5 5.5 8.1 85 1.2 W 24 32 13 17 1022.4 1022.4 0.0
29/05:30pm 11.2 6.6 8.2 82 1.5 W 22 28 12 15 1022.2 1022.2 0.0
29/05:00pm 11.8 6.4 7.9 77 1.9 W 26 37 14 20 1021.9 1021.9 0.0
29/04:30pm 12.7 7.1 8.6 76 2.0 W 28 35 15 19 1021.8 1021.8 0.0
29/04:00pm 11.7 6.8 8.4 80 1.6 W 24 39 13 21 1021.7 1021.7 0.0
29/03:30pm 11.7 6.3 7.8 77 1.9 W 26 35 14 19 1021.7 1021.7 0.0
29/03:00pm 11.8 6.5 8.3 79 1.7 W 26 37 14 20 1021.5 1021.5 0.0
29/02:30pm 12.5 6.2 9.0 79 1.8 W 32 50 17 27 1021.4 1021.4 0.0
29/02:25pm 12.4 6.1 8.9 79 1.8 W 32 50 17 27 1021.4 1021.4 0.0
29/02:00pm 11.9 5.4 8.9 82 1.5 W 33 48 18 26 1021.6 1021.6 0.0
29/01:50pm 11.4 4.7 8.3 81 1.5 W 33 46 18 25 1021.6 1021.6 0.0
29/01:30pm 12.0 5.5 9.0 82 1.5 W 33 50 18 27 1021.7 1021.7 0.0
29/01:00pm 11.0 4.3 8.0 82 1.5 W 33 48 18 26 1022.0 1022.0 0.0
29/12:51pm 10.8 4.1 8.2 84 1.3 W 33 52 18 28 1022.2 1022.2 0.0
29/12:30pm 9.9 2.0 7.8 87 1.0 W 39 52 21 28 1022.4 1022.4 0.0
29/12:00pm 9.8 2.2 7.4 85 1.1 W 37 50 20 27 1022.8 1022.8 0.0
29/11:38am 10.2 2.3 8.0 86 1.1 W 39 56 21 30 1022.8 1022.8 0.0
29/11:31am 9.6 1.9 7.0 84 1.2 W 37 56 20 30 1022.9 1022.9 0.0
29/11:30am 9.8 2.5 7.2 84 1.2 W 35 46 19 25 1022.9 1022.9 0.0
29/11:00am 9.0 0.4 6.3 83 1.2 W 41 54 22 29 1023.2 1023.2 0.0
29/10:34am 9.5 1.3 6.4 81 1.4 W 39 57 21 31 1023.0 1023.0 0.0
29/10:30am 9.2 0.4 5.4 77 1.7 W 41 56 22 30 1022.9 1022.9 0.0
29/10:05am 8.9 0.8 5.1 77 1.7 W 37 56 20 30 1023.3 1023.3 0.0
29/10:00am 9.1 1.3 5.1 76 1.8 W 35 50 19 27 1023.3 1023.3 0.0
29/09:34am 8.8 -0.2 4.6 75 1.9 W 41 59 22 32 1023.2 1023.2 0.0
29/09:30am 8.9 -0.5 4.7 75 1.9 W 43 54 23 29 1023.1 1023.1 0.0
29/09:00am 8.2 0.3 4.6 78 1.6 W 35 46 19 25 1023.4 1023.4 8.2
29/08:30am 7.4 0.1 4.7 83 1.2 W 32 39 17 21 1023.8 1023.8 8.2
29/08:00am 5.9 -0.1 3.4 84 1.0 W 24 32 13 17 1024.0 1024.0 8.2

Other Formats:

Comma delimited format used in spreadsheet applications
http://www.bom.gov.au/fwo/IDV60801/IDV60801.94907.axf

JavaScript Object Notation format (JSON) in row-major order
http://www.bom.gov.au/fwo/IDV60801/IDV60801.94907.json